sensor_id;sensor_type;location;lat;lon;timestamp;P1;durP1;ratioP1;P2;durP2;ratioP2
7823;SDS011;3957;48.61947800;9.05303100;2022-08-02T00:01:13;2.83;;;2.40;;
7823;SDS011;3957;48.61947800;9.05303100;2022-08-02T00:02:33;3.13;;;2.42;;
7823;SDS011;3957;48.61947800;9.05303100;2022-08-02T00:03:54;6.15;;;2.53;;
7823;SDS011;3957;48.61947800;9.05303100;2022-08-02T00:05:15;2.42;;;2.10;;
7823;SDS011;3957;48.61947800;9.05303100;2022-08-02T00:06:36;4.35;;;2.58;;
7823;SDS011;3957;48.61947800;9.05303100;2022-08-02T00:07:57;4.00;;;2.33;;
7823;SDS011;3957;48.61947800;9.05303100;2022-08-02T00:09:18;2.88;;;2.28;;
7823;SDS011;3957;48.61947800;9.05303100;2022-08-02T00:10:38;3.67;;;2.40;;
7823;SDS011;3957;48.61947800;9.05303100;2022-08-02T00:11:59;2.88;;;2.28;;
7823;SDS011;3957;48.61947800;9.05303100;2022-08-02T00:13:20;3.67;;;2.13;;
7823;SDS011;3957;48.61947800;9.05303100;2022-08-02T00:14:41;3.05;;;2.13;;
7823;SDS011;3957;48.61947800;9.05303100;2022-08-02T00:16:02;1.95;;;1.75;;
7823;SDS011;3957;48.61947800;9.05303100;2022-08-02T00:17:23;2.20;;;2.00;;
7823;SDS011;3957;48.61947800;9.05303100;2022-08-02T00:18:43;2.10;;;1.90;;
7823;SDS011;3957;48.61947800;9.05303100;2022-08-02T00:20:04;4.10;;;2.20;;
7823;SDS011;3957;48.61947800;9.05303100;2022-08-02T00:21:26;2.05;;;1.85;;
7823;SDS011;3957;48.61947800;9.05303100;2022-08-02T00:22:46;3.47;;;2.03;;
7823;SDS011;3957;48.61947800;9.05303100;2022-08-02T00:24:07;2.70;;;1.90;;
7823;SDS011;3957;48.61947800;9.05303100;2022-08-02T00:25:28;2.22;;;1.77;;
7823;SDS011;3957;48.61947800;9.05303100;2022-08-02T00:26:49;2.20;;;2.00;;
7823;SDS011;3957;48.61947800;9.05303100;2022-08-02T00:28:10;2.00;;;1.80;;
7823;SDS011;3957;48.61947800;9.05303100;2022-08-02T00:29:30;2.15;;;1.70;;
7823;SDS011;3957;48.61947800;9.05303100;2022-08-02T00:30:51;2.13;;;1.93;;
7823;SDS011;3957;48.61947800;9.05303100;2022-08-02T00:32:12;2.28;;;2.08;;
7823;SDS011;3957;48.61947800;9.05303100;2022-08-02T00:33:33;2.15;;;1.95;;
7823;SDS011;3957;48.61947800;9.05303100;2022-08-02T00:34:53;3.33;;;1.70;;
7823;SDS011;3957;48.61947800;9.05303100;2022-08-02T00:36:14;4.10;;;1.80;;
7823;SDS011;3957;48.61947800;9.05303100;2022-08-02T00:37:39;3.20;;;1.90;;
7823;SDS011;3957;48.61947800;9.05303100;2022-08-02T00:39:00;3.22;;;1.70;;
7823;SDS011;3957;48.61947800;9.05303100;2022-08-02T00:40:21;2.25;;;2.00;;
7823;SDS011;3957;48.61947800;9.05303100;2022-08-02T00:41:46;2.33;;;2.00;;
7823;SDS011;3957;48.61947800;9.05303100;2022-08-02T00:43:09;2.00;;;1.85;;
7823;SDS011;3957;48.61947800;9.05303100;2022-08-02T00:44:30;3.80;;;2.17;;
7823;SDS011;3957;48.61947800;9.05303100;2022-08-02T00:45:51;2.17;;;1.70;;
7823;SDS011;3957;48.61947800;9.05303100;2022-08-02T00:47:12;2.33;;;2.10;;
7823;SDS011;3957;48.61947800;9.05303100;2022-08-02T00:48:32;2.50;;;1.83;;
7823;SDS011;3957;48.61947800;9.05303100;2022-08-02T00:49:53;1.70;;;1.60;;
7823;SDS011;3957;48.61947800;9.05303100;2022-08-02T00:51:15;2.10;;;1.90;;
7823;SDS011;3957;48.61947800;9.05303100;2022-08-02T00:52:36;2.33;;;1.83;;
7823;SDS011;3957;48.61947800;9.05303100;2022-08-02T00:53:57;3.08;;;1.92;;
7823;SDS011;3957;48.61947800;9.05303100;2022-08-02T00:55:18;4.03;;;1.77;;
7823;SDS011;3957;48.61947800;9.05303100;2022-08-02T00:56:39;3.22;;;2.17;;
7823;SDS011;3957;48.61947800;9.05303100;2022-08-02T00:58:00;2.67;;;1.92;;
7823;SDS011;3957;48.61947800;9.05303100;2022-08-02T00:59:21;3.88;;;1.83;;
7823;SDS011;3957;48.61947800;9.05303100;2022-08-02T01:00:41;2.58;;;2.10;;
7823;SDS011;3957;48.61947800;9.05303100;2022-08-02T01:02:02;2.33;;;1.90;;
7823;SDS011;3957;48.61947800;9.05303100;2022-08-02T01:03:23;2.58;;;1.75;;
7823;SDS011;3957;48.61947800;9.05303100;2022-08-02T01:04:44;2.50;;;1.63;;
7823;SDS011;3957;48.61947800;9.05303100;2022-08-02T01:06:05;3.65;;;1.75;;
7823;SDS011;3957;48.61947800;9.05303100;2022-08-02T01:07:26;3.22;;;1.88;;
7823;SDS011;3957;48.61947800;9.05303100;2022-08-02T01:08:47;3.00;;;1.80;;
7823;SDS011;3957;48.61947800;9.05303100;2022-08-02T01:10:08;2.45;;;1.90;;
7823;SDS011;3957;48.61947800;9.05303100;2022-08-02T01:11:29;2.28;;;2.05;;
7823;SDS011;3957;48.61947800;9.05303100;2022-08-02T01:12:50;2.65;;;1.75;;
7823;SDS011;3957;48.61947800;9.05303100;2022-08-02T01:14:11;2.70;;;2.00;;
7823;SDS011;3957;48.61947800;9.05303100;2022-08-02T01:15:35;2.05;;;1.85;;
7823;SDS011;3957;48.61947800;9.05303100;2022-08-02T01:17:06;2.67;;;2.00;;
7823;SDS011;3957;48.61947800;9.05303100;2022-08-02T01:18:30;2.30;;;1.92;;
7823;SDS011;3957;48.61947800;9.05303100;2022-08-02T01:21:40;2.53;;;2.05;;
7823;SDS011;3957;48.61947800;9.05303100;2022-08-02T01:29:59;3.70;;;2.27;;
7823;SDS011;3957;48.61947800;9.05303100;2022-08-02T01:31:26;2.43;;;1.87;;
7823;SDS011;3957;48.61947800;9.05303100;2022-08-02T01:32:52;2.05;;;1.85;;
7823;SDS011;3957;48.61947800;9.05303100;2022-08-02T01:34:19;3.35;;;1.70;;
7823;SDS011;3957;48.61947800;9.05303100;2022-08-02T01:35:50;2.90;;;2.00;;
7823;SDS011;3957;48.61947800;9.05303100;2022-08-02T01:37:21;3.22;;;1.98;;
7823;SDS011;3957;48.61947800;9.05303100;2022-08-02T01:38:48;3.28;;;2.17;;
7823;SDS011;3957;48.61947800;9.05303100;2022-08-02T01:40:13;2.20;;;1.95;;
7823;SDS011;3957;48.61947800;9.05303100;2022-08-02T01:41:40;3.00;;;2.13;;
7823;SDS011;3957;48.61947800;9.05303100;2022-08-02T01:43:02;2.60;;;2.03;;
7823;SDS011;3957;48.61947800;9.05303100;2022-08-02T01:44:24;4.22;;;2.50;;
7823;SDS011;3957;48.61947800;9.05303100;2022-08-02T01:45:48;2.55;;;2.35;;
7823;SDS011;3957;48.61947800;9.05303100;2022-08-02T01:47:13;3.08;;;2.20;;
7823;SDS011;3957;48.61947800;9.05303100;2022-08-02T01:48:37;4.80;;;2.17;;
7823;SDS011;3957;48.61947800;9.05303100;2022-08-02T01:50:01;3.90;;;2.00;;
7823;SDS011;3957;48.61947800;9.05303100;2022-08-02T01:51:25;3.40;;;2.30;;
7823;SDS011;3957;48.61947800;9.05303100;2022-08-02T01:53:05;2.97;;;2.28;;
7823;SDS011;3957;48.61947800;9.05303100;2022-08-02T01:54:29;3.50;;;2.20;;
7823;SDS011;3957;48.61947800;9.05303100;2022-08-02T01:55:53;2.50;;;2.15;;
7823;SDS011;3957;48.61947800;9.05303100;2022-08-02T01:57:17;3.42;;;2.10;;
7823;SDS011;3957;48.61947800;9.05303100;2022-08-02T01:58:42;2.08;;;1.83;;
7823;SDS011;3957;48.61947800;9.05303100;2022-08-02T02:00:05;3.67;;;2.00;;
7823;SDS011;3957;48.61947800;9.05303100;2022-08-02T02:01:30;2.50;;;2.20;;
7823;SDS011;3957;48.61947800;9.05303100;2022-08-02T02:02:56;2.38;;;2.13;;
7823;SDS011;3957;48.61947800;9.05303100;2022-08-02T02:04:19;5.28;;;2.00;;
7823;SDS011;3957;48.61947800;9.05303100;2022-08-02T02:05:41;3.40;;;2.20;;
7823;SDS011;3957;48.61947800;9.05303100;2022-08-02T02:07:03;4.35;;;2.13;;
7823;SDS011;3957;48.61947800;9.05303100;2022-08-02T02:08:30;3.78;;;2.33;;
7823;SDS011;3957;48.61947800;9.05303100;2022-08-02T02:09:57;2.47;;;2.00;;
7823;SDS011;3957;48.61947800;9.05303100;2022-08-02T02:11:20;3.38;;;2.38;;
7823;SDS011;3957;48.61947800;9.05303100;2022-08-02T02:12:45;2.17;;;1.90;;
7823;SDS011;3957;48.61947800;9.05303100;2022-08-02T02:14:10;3.42;;;2.40;;
7823;SDS011;3957;48.61947800;9.05303100;2022-08-02T02:15:33;3.38;;;2.50;;
7823;SDS011;3957;48.61947800;9.05303100;2022-08-02T02:16:59;2.67;;;2.13;;
7823;SDS011;3957;48.61947800;9.05303100;2022-08-02T02:18:24;2.40;;;2.20;;
7823;SDS011;3957;48.61947800;9.05303100;2022-08-02T02:19:47;5.60;;;2.38;;
7823;SDS011;3957;48.61947800;9.05303100;2022-08-02T02:21:09;3.50;;;2.13;;
7823;SDS011;3957;48.61947800;9.05303100;2022-08-02T02:22:31;3.70;;;2.25;;
7823;SDS011;3957;48.61947800;9.05303100;2022-08-02T02:23:52;3.00;;;2.00;;
7823;SDS011;3957;48.61947800;9.05303100;2022-08-02T02:25:15;2.70;;;2.30;;
7823;SDS011;3957;48.61947800;9.05303100;2022-08-02T02:26:38;2.80;;;2.08;;
7823;SDS011;3957;48.61947800;9.05303100;2022-08-02T02:28:04;3.08;;;2.10;;
7823;SDS011;3957;48.61947800;9.05303100;2022-08-02T02:29:30;2.00;;;1.80;;
7823;SDS011;3957;48.61947800;9.05303100;2022-08-02T02:30:54;4.20;;;2.03;;
7823;SDS011;3957;48.61947800;9.05303100;2022-08-02T02:32:20;2.50;;;2.20;;
7823;SDS011;3957;48.61947800;9.05303100;2022-08-02T02:33:51;2.97;;;2.03;;
7823;SDS011;3957;48.61947800;9.05303100;2022-08-02T02:35:17;2.40;;;1.80;;
7823;SDS011;3957;48.61947800;9.05303100;2022-08-02T02:36:40;2.20;;;1.80;;
7823;SDS011;3957;48.61947800;9.05303100;2022-08-02T02:38:08;2.67;;;2.10;;
7823;SDS011;3957;48.61947800;9.05303100;2022-08-02T02:39:32;2.28;;;2.08;;
7823;SDS011;3957;48.61947800;9.05303100;2022-08-02T02:40:55;2.60;;;1.83;;
7823;SDS011;3957;48.61947800;9.05303100;2022-08-02T02:42:21;3.70;;;1.92;;
7823;SDS011;3957;48.61947800;9.05303100;2022-08-02T02:43:47;2.30;;;1.83;;
7823;SDS011;3957;48.61947800;9.05303100;2022-08-02T02:45:10;2.97;;;2.00;;
7823;SDS011;3957;48.61947800;9.05303100;2022-08-02T02:46:33;2.35;;;1.90;;
7823;SDS011;3957;48.61947800;9.05303100;2022-08-02T02:47:55;2.30;;;1.80;;
7823;SDS011;3957;48.61947800;9.05303100;2022-08-02T02:49:16;2.60;;;1.95;;
7823;SDS011;3957;48.61947800;9.05303100;2022-08-02T02:50:40;2.00;;;1.70;;
7823;SDS011;3957;48.61947800;9.05303100;2022-08-02T02:52:03;2.00;;;1.80;;
7823;SDS011;3957;48.61947800;9.05303100;2022-08-02T02:53:25;2.10;;;1.90;;
7823;SDS011;3957;48.61947800;9.05303100;2022-08-02T02:54:47;2.70;;;1.67;;
7823;SDS011;3957;48.61947800;9.05303100;2022-08-02T02:56:10;2.33;;;2.00;;
7823;SDS011;3957;48.61947800;9.05303100;2022-08-02T02:57:32;2.35;;;1.95;;
7823;SDS011;3957;48.61947800;9.05303100;2022-08-02T02:58:55;3.00;;;1.80;;
7823;SDS011;3957;48.61947800;9.05303100;2022-08-02T03:00:16;1.92;;;1.73;;
7823;SDS011;3957;48.61947800;9.05303100;2022-08-02T03:01:58;3.88;;;1.80;;
7823;SDS011;3957;48.61947800;9.05303100;2022-08-02T03:03:19;2.38;;;2.03;;
7823;SDS011;3957;48.61947800;9.05303100;2022-08-02T03:04:40;2.42;;;1.90;;
7823;SDS011;3957;48.61947800;9.05303100;2022-08-02T03:06:03;2.55;;;2.00;;
7823;SDS011;3957;48.61947800;9.05303100;2022-08-02T03:07:24;2.85;;;1.90;;
7823;SDS011;3957;48.61947800;9.05303100;2022-08-02T03:08:46;2.03;;;1.83;;
7823;SDS011;3957;48.61947800;9.05303100;2022-08-02T03:10:07;2.15;;;1.73;;
7823;SDS011;3957;48.61947800;9.05303100;2022-08-02T03:11:28;2.22;;;1.55;;
7823;SDS011;3957;48.61947800;9.05303100;2022-08-02T03:12:49;2.38;;;1.67;;
7823;SDS011;3957;48.61947800;9.05303100;2022-08-02T03:14:10;1.70;;;1.60;;
7823;SDS011;3957;48.61947800;9.05303100;2022-08-02T03:15:31;1.85;;;1.40;;
7823;SDS011;3957;48.61947800;9.05303100;2022-08-02T03:16:54;1.30;;;1.20;;
7823;SDS011;3957;48.61947800;9.05303100;2022-08-02T03:19:54;2.38;;;1.77;;
7823;SDS011;3957;48.61947800;9.05303100;2022-08-02T03:21:14;3.33;;;1.60;;
7823;SDS011;3957;48.61947800;9.05303100;2022-08-02T03:22:35;1.90;;;1.70;;
7823;SDS011;3957;48.61947800;9.05303100;2022-08-02T03:23:56;1.50;;;1.40;;
7823;SDS011;3957;48.61947800;9.05303100;2022-08-02T03:25:17;1.40;;;1.30;;
7823;SDS011;3957;48.61947800;9.05303100;2022-08-02T03:26:38;1.77;;;1.40;;
7823;SDS011;3957;48.61947800;9.05303100;2022-08-02T03:27:59;1.52;;;1.42;;
7823;SDS011;3957;48.61947800;9.05303100;2022-08-02T03:29:19;1.48;;;1.38;;
7823;SDS011;3957;48.61947800;9.05303100;2022-08-02T03:30:40;1.40;;;1.30;;
7823;SDS011;3957;48.61947800;9.05303100;2022-08-02T03:32:01;2.08;;;1.73;;
7823;SDS011;3957;48.61947800;9.05303100;2022-08-02T03:33:22;1.63;;;1.50;;
7823;SDS011;3957;48.61947800;9.05303100;2022-08-02T03:34:45;1.60;;;1.40;;
7823;SDS011;3957;48.61947800;9.05303100;2022-08-02T03:36:07;1.83;;;1.73;;
7823;SDS011;3957;48.61947800;9.05303100;2022-08-02T03:37:31;1.67;;;1.30;;
7823;SDS011;3957;48.61947800;9.05303100;2022-08-02T03:38:53;3.58;;;1.20;;
7823;SDS011;3957;48.61947800;9.05303100;2022-08-02T03:40:14;1.92;;;1.30;;
7823;SDS011;3957;48.61947800;9.05303100;2022-08-02T03:41:36;1.70;;;1.60;;
7823;SDS011;3957;48.61947800;9.05303100;2022-08-02T03:42:58;1.70;;;1.60;;
7823;SDS011;3957;48.61947800;9.05303100;2022-08-02T03:44:20;1.52;;;1.40;;
7823;SDS011;3957;48.61947800;9.05303100;2022-08-02T03:45:43;1.60;;;1.50;;
7823;SDS011;3957;48.61947800;9.05303100;2022-08-02T03:47:07;2.90;;;1.42;;
7823;SDS011;3957;48.61947800;9.05303100;2022-08-02T03:48:28;3.35;;;1.98;;
7823;SDS011;3957;48.61947800;9.05303100;2022-08-02T03:49:52;2.38;;;1.70;;
7823;SDS011;3957;48.61947800;9.05303100;2022-08-02T03:51:13;1.70;;;1.60;;
7823;SDS011;3957;48.61947800;9.05303100;2022-08-02T03:52:34;3.72;;;1.75;;
7823;SDS011;3957;48.61947800;9.05303100;2022-08-02T03:53:56;2.10;;;1.77;;
7823;SDS011;3957;48.61947800;9.05303100;2022-08-02T03:55:17;2.10;;;1.73;;
7823;SDS011;3957;48.61947800;9.05303100;2022-08-02T03:56:37;1.90;;;1.77;;
7823;SDS011;3957;48.61947800;9.05303100;2022-08-02T03:57:59;1.60;;;1.50;;
7823;SDS011;3957;48.61947800;9.05303100;2022-08-02T03:59:20;1.90;;;1.70;;
7823;SDS011;3957;48.61947800;9.05303100;2022-08-02T04:00:40;1.70;;;1.60;;
7823;SDS011;3957;48.61947800;9.05303100;2022-08-02T04:02:01;2.00;;;1.80;;
7823;SDS011;3957;48.61947800;9.05303100;2022-08-02T04:03:22;1.75;;;1.65;;
7823;SDS011;3957;48.61947800;9.05303100;2022-08-02T04:04:43;2.67;;;1.83;;
7823;SDS011;3957;48.61947800;9.05303100;2022-08-02T04:06:04;1.80;;;1.67;;
7823;SDS011;3957;48.61947800;9.05303100;2022-08-02T04:07:25;1.80;;;1.65;;
7823;SDS011;3957;48.61947800;9.05303100;2022-08-02T04:08:45;2.10;;;1.70;;
7823;SDS011;3957;48.61947800;9.05303100;2022-08-02T04:10:06;1.92;;;1.83;;
7823;SDS011;3957;48.61947800;9.05303100;2022-08-02T04:11:27;2.05;;;1.83;;
7823;SDS011;3957;48.61947800;9.05303100;2022-08-02T04:12:51;1.85;;;1.67;;
7823;SDS011;3957;48.61947800;9.05303100;2022-08-02T04:14:12;2.00;;;1.80;;
7823;SDS011;3957;48.61947800;9.05303100;2022-08-02T04:15:33;1.70;;;1.60;;
7823;SDS011;3957;48.61947800;9.05303100;2022-08-02T04:16:55;1.50;;;1.40;;
7823;SDS011;3957;48.61947800;9.05303100;2022-08-02T04:18:21;1.73;;;1.60;;
7823;SDS011;3957;48.61947800;9.05303100;2022-08-02T04:19:50;1.83;;;1.50;;
7823;SDS011;3957;48.61947800;9.05303100;2022-08-02T04:21:20;1.80;;;1.50;;
7823;SDS011;3957;48.61947800;9.05303100;2022-08-02T04:22:50;1.58;;;1.48;;
7823;SDS011;3957;48.61947800;9.05303100;2022-08-02T04:24:16;1.90;;;1.60;;
7823;SDS011;3957;48.61947800;9.05303100;2022-08-02T04:25:38;2.30;;;1.70;;
7823;SDS011;3957;48.61947800;9.05303100;2022-08-02T04:27:00;3.67;;;1.80;;
7823;SDS011;3957;48.61947800;9.05303100;2022-08-02T04:28:22;2.33;;;1.95;;
7823;SDS011;3957;48.61947800;9.05303100;2022-08-02T04:29:44;2.05;;;1.67;;
7823;SDS011;3957;48.61947800;9.05303100;2022-08-02T04:31:07;2.10;;;1.90;;
7823;SDS011;3957;48.61947800;9.05303100;2022-08-02T04:32:28;3.10;;;2.03;;
7823;SDS011;3957;48.61947800;9.05303100;2022-08-02T04:33:50;1.80;;;1.70;;
7823;SDS011;3957;48.61947800;9.05303100;2022-08-02T04:35:11;2.65;;;2.00;;
7823;SDS011;3957;48.61947800;9.05303100;2022-08-02T04:36:33;1.92;;;1.73;;
7823;SDS011;3957;48.61947800;9.05303100;2022-08-02T04:37:55;2.35;;;1.65;;
7823;SDS011;3957;48.61947800;9.05303100;2022-08-02T04:39:16;2.13;;;1.92;;
7823;SDS011;3957;48.61947800;9.05303100;2022-08-02T04:40:38;1.98;;;1.80;;
7823;SDS011;3957;48.61947800;9.05303100;2022-08-02T04:41:59;1.70;;;1.50;;
7823;SDS011;3957;48.61947800;9.05303100;2022-08-02T04:43:20;2.53;;;1.60;;
7823;SDS011;3957;48.61947800;9.05303100;2022-08-02T04:44:41;1.98;;;1.60;;
7823;SDS011;3957;48.61947800;9.05303100;2022-08-02T04:46:02;2.38;;;1.65;;
7823;SDS011;3957;48.61947800;9.05303100;2022-08-02T04:47:23;2.05;;;1.60;;
7823;SDS011;3957;48.61947800;9.05303100;2022-08-02T04:48:44;1.60;;;1.50;;
7823;SDS011;3957;48.61947800;9.05303100;2022-08-02T04:50:04;1.52;;;1.42;;
7823;SDS011;3957;48.61947800;9.05303100;2022-08-02T04:51:26;1.90;;;1.70;;
7823;SDS011;3957;48.61947800;9.05303100;2022-08-02T04:52:46;2.25;;;1.70;;
7823;SDS011;3957;48.61947800;9.05303100;2022-08-02T04:54:08;1.75;;;1.65;;
7823;SDS011;3957;48.61947800;9.05303100;2022-08-02T04:55:30;2.58;;;1.60;;
7823;SDS011;3957;48.61947800;9.05303100;2022-08-02T04:56:50;1.50;;;1.40;;
7823;SDS011;3957;48.61947800;9.05303100;2022-08-02T04:58:11;1.90;;;1.67;;
7823;SDS011;3957;48.61947800;9.05303100;2022-08-02T04:59:33;2.20;;;1.92;;
7823;SDS011;3957;48.61947800;9.05303100;2022-08-02T05:00:54;2.10;;;1.90;;
7823;SDS011;3957;48.61947800;9.05303100;2022-08-02T05:02:14;1.73;;;1.63;;
7823;SDS011;3957;48.61947800;9.05303100;2022-08-02T05:03:35;1.70;;;1.60;;
7823;SDS011;3957;48.61947800;9.05303100;2022-08-02T05:04:56;2.20;;;1.83;;
7823;SDS011;3957;48.61947800;9.05303100;2022-08-02T05:06:17;1.50;;;1.30;;
7823;SDS011;3957;48.61947800;9.05303100;2022-08-02T05:07:39;1.75;;;1.25;;
7823;SDS011;3957;48.61947800;9.05303100;2022-08-02T05:08:59;1.60;;;1.40;;
7823;SDS011;3957;48.61947800;9.05303100;2022-08-02T05:10:21;1.70;;;1.60;;
7823;SDS011;3957;48.61947800;9.05303100;2022-08-02T05:11:42;1.85;;;1.70;;
7823;SDS011;3957;48.61947800;9.05303100;2022-08-02T05:13:03;1.45;;;1.35;;
7823;SDS011;3957;48.61947800;9.05303100;2022-08-02T05:14:24;1.73;;;1.42;;
7823;SDS011;3957;48.61947800;9.05303100;2022-08-02T05:15:48;1.40;;;1.30;;
7823;SDS011;3957;48.61947800;9.05303100;2022-08-02T05:17:12;1.50;;;1.25;;
7823;SDS011;3957;48.61947800;9.05303100;2022-08-02T05:18:32;1.20;;;1.10;;
7823;SDS011;3957;48.61947800;9.05303100;2022-08-02T05:19:53;3.35;;;1.30;;
7823;SDS011;3957;48.61947800;9.05303100;2022-08-02T05:21:14;1.30;;;1.20;;
7823;SDS011;3957;48.61947800;9.05303100;2022-08-02T05:22:35;1.10;;;1.00;;
7823;SDS011;3957;48.61947800;9.05303100;2022-08-02T05:23:55;1.60;;;1.05;;
7823;SDS011;3957;48.61947800;9.05303100;2022-08-02T05:25:16;1.25;;;1.15;;
7823;SDS011;3957;48.61947800;9.05303100;2022-08-02T05:26:37;1.48;;;1.00;;
7823;SDS011;3957;48.61947800;9.05303100;2022-08-02T05:27:58;1.25;;;1.10;;
7823;SDS011;3957;48.61947800;9.05303100;2022-08-02T05:29:18;1.60;;;1.10;;
7823;SDS011;3957;48.61947800;9.05303100;2022-08-02T05:30:39;1.55;;;1.30;;
7823;SDS011;3957;48.61947800;9.05303100;2022-08-02T05:32:00;1.52;;;1.00;;
7823;SDS011;3957;48.61947800;9.05303100;2022-08-02T05:33:21;1.50;;;1.10;;
7823;SDS011;3957;48.61947800;9.05303100;2022-08-02T05:34:42;0.90;;;0.90;;
7823;SDS011;3957;48.61947800;9.05303100;2022-08-02T05:36:02;1.73;;;1.27;;
7823;SDS011;3957;48.61947800;9.05303100;2022-08-02T05:37:23;1.30;;;1.02;;
7823;SDS011;3957;48.61947800;9.05303100;2022-08-02T05:38:44;1.10;;;1.00;;
7823;SDS011;3957;48.61947800;9.05303100;2022-08-02T05:40:05;1.20;;;1.10;;
7823;SDS011;3957;48.61947800;9.05303100;2022-08-02T05:41:27;1.90;;;1.08;;
7823;SDS011;3957;48.61947800;9.05303100;2022-08-02T05:42:47;1.08;;;0.98;;
7823;SDS011;3957;48.61947800;9.05303100;2022-08-02T05:44:08;1.20;;;1.10;;
7823;SDS011;3957;48.61947800;9.05303100;2022-08-02T05:45:32;1.20;;;1.10;;
7823;SDS011;3957;48.61947800;9.05303100;2022-08-02T05:46:53;1.30;;;1.20;;
7823;SDS011;3957;48.61947800;9.05303100;2022-08-02T05:48:14;1.50;;;1.30;;
7823;SDS011;3957;48.61947800;9.05303100;2022-08-02T05:49:35;1.40;;;1.20;;
7823;SDS011;3957;48.61947800;9.05303100;2022-08-02T05:50:59;1.40;;;1.30;;
7823;SDS011;3957;48.61947800;9.05303100;2022-08-02T05:52:24;1.00;;;1.00;;
7823;SDS011;3957;48.61947800;9.05303100;2022-08-02T05:53:51;1.08;;;1.02;;
7823;SDS011;3957;48.61947800;9.05303100;2022-08-02T05:55:34;3.67;;;1.33;;
7823;SDS011;3957;48.61947800;9.05303100;2022-08-02T05:57:10;1.73;;;1.55;;
7823;SDS011;3957;48.61947800;9.05303100;2022-08-02T05:58:49;1.50;;;1.30;;
7823;SDS011;3957;48.61947800;9.05303100;2022-08-02T06:00:15;1.50;;;1.38;;
7823;SDS011;3957;48.61947800;9.05303100;2022-08-02T06:01:37;1.33;;;1.23;;
7823;SDS011;3957;48.61947800;9.05303100;2022-08-02T06:03:04;1.50;;;1.33;;
7823;SDS011;3957;48.61947800;9.05303100;2022-08-02T06:04:40;2.63;;;1.35;;
7823;SDS011;3957;48.61947800;9.05303100;2022-08-02T06:06:15;1.63;;;1.52;;
7823;SDS011;3957;48.61947800;9.05303100;2022-08-02T06:07:43;1.80;;;1.50;;
7823;SDS011;3957;48.61947800;9.05303100;2022-08-02T06:09:08;1.58;;;1.42;;
7823;SDS011;3957;48.61947800;9.05303100;2022-08-02T06:10:34;1.50;;;1.40;;
7823;SDS011;3957;48.61947800;9.05303100;2022-08-02T06:11:57;1.70;;;1.60;;
7823;SDS011;3957;48.61947800;9.05303100;2022-08-02T06:13:18;2.45;;;1.63;;
7823;SDS011;3957;48.61947800;9.05303100;2022-08-02T06:14:39;3.03;;;1.30;;
7823;SDS011;3957;48.61947800;9.05303100;2022-08-02T06:16:01;1.65;;;1.30;;
7823;SDS011;3957;48.61947800;9.05303100;2022-08-02T06:17:22;1.52;;;1.42;;
7823;SDS011;3957;48.61947800;9.05303100;2022-08-02T06:18:44;1.58;;;1.35;;
7823;SDS011;3957;48.61947800;9.05303100;2022-08-02T06:20:05;1.40;;;1.30;;
7823;SDS011;3957;48.61947800;9.05303100;2022-08-02T06:21:27;1.30;;;1.20;;
7823;SDS011;3957;48.61947800;9.05303100;2022-08-02T06:22:48;1.60;;;1.15;;
7823;SDS011;3957;48.61947800;9.05303100;2022-08-02T06:24:10;1.25;;;1.15;;
7823;SDS011;3957;48.61947800;9.05303100;2022-08-02T06:25:33;1.40;;;1.30;;
7823;SDS011;3957;48.61947800;9.05303100;2022-08-02T06:26:55;1.50;;;1.00;;
7823;SDS011;3957;48.61947800;9.05303100;2022-08-02T06:28:17;2.13;;;1.30;;
7823;SDS011;3957;48.61947800;9.05303100;2022-08-02T06:29:39;1.15;;;1.05;;
7823;SDS011;3957;48.61947800;9.05303100;2022-08-02T06:31:02;0.95;;;0.95;;
7823;SDS011;3957;48.61947800;9.05303100;2022-08-02T06:32:23;1.55;;;1.10;;
7823;SDS011;3957;48.61947800;9.05303100;2022-08-02T06:33:46;1.83;;;1.30;;
7823;SDS011;3957;48.61947800;9.05303100;2022-08-02T06:35:07;1.58;;;1.20;;
7823;SDS011;3957;48.61947800;9.05303100;2022-08-02T06:36:36;5.53;;;1.35;;
7823;SDS011;3957;48.61947800;9.05303100;2022-08-02T06:38:04;2.25;;;1.10;;
7823;SDS011;3957;48.61947800;9.05303100;2022-08-02T06:39:30;1.80;;;1.40;;
7823;SDS011;3957;48.61947800;9.05303100;2022-08-02T06:41:02;1.63;;;1.50;;
7823;SDS011;3957;48.61947800;9.05303100;2022-08-02T06:42:26;1.50;;;1.38;;
7823;SDS011;3957;48.61947800;9.05303100;2022-08-02T06:43:59;2.33;;;1.30;;
7823;SDS011;3957;48.61947800;9.05303100;2022-08-02T06:45:22;2.38;;;1.70;;
7823;SDS011;3957;48.61947800;9.05303100;2022-08-02T06:46:42;3.50;;;1.73;;
7823;SDS011;3957;48.61947800;9.05303100;2022-08-02T06:48:03;1.60;;;1.50;;
7823;SDS011;3957;48.61947800;9.05303100;2022-08-02T06:49:25;3.13;;;1.55;;
7823;SDS011;3957;48.61947800;9.05303100;2022-08-02T06:50:46;1.77;;;1.60;;
7823;SDS011;3957;48.61947800;9.05303100;2022-08-02T06:52:07;2.42;;;1.90;;
7823;SDS011;3957;48.61947800;9.05303100;2022-08-02T06:53:27;1.40;;;1.30;;
7823;SDS011;3957;48.61947800;9.05303100;2022-08-02T06:54:48;2.08;;;1.65;;
7823;SDS011;3957;48.61947800;9.05303100;2022-08-02T06:56:09;1.33;;;1.23;;
7823;SDS011;3957;48.61947800;9.05303100;2022-08-02T06:57:30;1.95;;;1.50;;
7823;SDS011;3957;48.61947800;9.05303100;2022-08-02T06:58:51;1.77;;;1.30;;
7823;SDS011;3957;48.61947800;9.05303100;2022-08-02T07:00:12;1.70;;;1.60;;
7823;SDS011;3957;48.61947800;9.05303100;2022-08-02T07:01:33;2.33;;;1.60;;
7823;SDS011;3957;48.61947800;9.05303100;2022-08-02T07:02:54;2.20;;;1.80;;
7823;SDS011;3957;48.61947800;9.05303100;2022-08-02T07:04:16;1.52;;;1.42;;
7823;SDS011;3957;48.61947800;9.05303100;2022-08-02T07:05:36;1.60;;;1.43;;
7823;SDS011;3957;48.61947800;9.05303100;2022-08-02T07:06:58;1.92;;;1.50;;
7823;SDS011;3957;48.61947800;9.05303100;2022-08-02T07:08:18;2.42;;;1.60;;
7823;SDS011;3957;48.61947800;9.05303100;2022-08-02T07:09:39;3.03;;;1.70;;
7823;SDS011;3957;48.61947800;9.05303100;2022-08-02T07:11:01;1.95;;;1.40;;
7823;SDS011;3957;48.61947800;9.05303100;2022-08-02T07:12:22;2.20;;;2.00;;
7823;SDS011;3957;48.61947800;9.05303100;2022-08-02T07:13:42;1.60;;;1.50;;
7823;SDS011;3957;48.61947800;9.05303100;2022-08-02T07:15:04;1.45;;;1.30;;
7823;SDS011;3957;48.61947800;9.05303100;2022-08-02T07:16:26;1.52;;;1.38;;
7823;SDS011;3957;48.61947800;9.05303100;2022-08-02T07:17:46;1.63;;;1.52;;
7823;SDS011;3957;48.61947800;9.05303100;2022-08-02T07:19:07;1.77;;;1.50;;
7823;SDS011;3957;48.61947800;9.05303100;2022-08-02T07:20:28;1.92;;;1.70;;
7823;SDS011;3957;48.61947800;9.05303100;2022-08-02T07:21:49;2.63;;;1.90;;
7823;SDS011;3957;48.61947800;9.05303100;2022-08-02T07:23:09;2.20;;;1.97;;
7823;SDS011;3957;48.61947800;9.05303100;2022-08-02T07:24:30;3.22;;;1.83;;
7823;SDS011;3957;48.61947800;9.05303100;2022-08-02T07:25:51;1.83;;;1.65;;
7823;SDS011;3957;48.61947800;9.05303100;2022-08-02T07:27:12;2.15;;;1.95;;
7823;SDS011;3957;48.61947800;9.05303100;2022-08-02T07:28:32;3.65;;;2.17;;
7823;SDS011;3957;48.61947800;9.05303100;2022-08-02T07:29:53;3.15;;;1.80;;
7823;SDS011;3957;48.61947800;9.05303100;2022-08-02T07:31:15;5.03;;;2.05;;
7823;SDS011;3957;48.61947800;9.05303100;2022-08-02T07:32:35;2.10;;;1.90;;
7823;SDS011;3957;48.61947800;9.05303100;2022-08-02T07:33:56;2.63;;;2.00;;
7823;SDS011;3957;48.61947800;9.05303100;2022-08-02T07:35:17;3.05;;;2.42;;